sensor_id;sensor_type;location;lat;lon;timestamp;P1;durP1;ratioP1;P2;durP2;ratioP2
3207;SDS011;1616;52.394;9.756;2024-01-10T00:02:06;4.93;;;3.77;;
3207;SDS011;1616;52.394;9.756;2024-01-10T00:04:32;10.37;;;5.13;;
3207;SDS011;1616;52.394;9.756;2024-01-10T00:06:57;7.63;;;4.93;;
3207;SDS011;1616;52.394;9.756;2024-01-10T00:09:23;11.20;;;5.60;;
3207;SDS011;1616;52.394;9.756;2024-01-10T00:11:48;11.30;;;3.70;;
3207;SDS011;1616;52.394;9.756;2024-01-10T00:14:14;15.13;;;5.07;;
3207;SDS011;1616;52.394;9.756;2024-01-10T00:16:39;8.43;;;5.00;;
3207;SDS011;1616;52.394;9.756;2024-01-10T00:19:05;12.93;;;4.53;;
3207;SDS011;1616;52.394;9.756;2024-01-10T00:21:31;9.20;;;5.17;;
3207;SDS011;1616;52.394;9.756;2024-01-10T00:23:57;11.13;;;4.97;;
3207;SDS011;1616;52.394;9.756;2024-01-10T00:26:22;7.40;;;5.50;;
3207;SDS011;1616;52.394;9.756;2024-01-10T00:28:48;10.40;;;3.70;;
3207;SDS011;1616;52.394;9.756;2024-01-10T00:31:14;9.03;;;4.97;;
3207;SDS011;1616;52.394;9.756;2024-01-10T00:33:40;8.73;;;5.00;;
3207;SDS011;1616;52.394;9.756;2024-01-10T00:36:06;11.30;;;5.13;;
3207;SDS011;1616;52.394;9.756;2024-01-10T00:38:31;11.40;;;6.10;;
3207;SDS011;1616;52.394;9.756;2024-01-10T00:40:57;6.77;;;4.13;;
3207;SDS011;1616;52.394;9.756;2024-01-10T00:43:23;5.90;;;4.60;;
3207;SDS011;1616;52.394;9.756;2024-01-10T00:45:48;10.63;;;5.03;;
3207;SDS011;1616;52.394;9.756;2024-01-10T00:48:14;28.03;;;5.70;;
3207;SDS011;1616;52.394;9.756;2024-01-10T00:50:39;12.30;;;6.30;;
3207;SDS011;1616;52.394;9.756;2024-01-10T00:53:05;12.10;;;5.20;;
3207;SDS011;1616;52.394;9.756;2024-01-10T00:55:31;11.97;;;5.97;;
3207;SDS011;1616;52.394;9.756;2024-01-10T00:57:56;10.63;;;5.87;;
3207;SDS011;1616;52.394;9.756;2024-01-10T01:00:22;13.83;;;4.80;;
3207;SDS011;1616;52.394;9.756;2024-01-10T01:02:47;11.20;;;6.33;;
3207;SDS011;1616;52.394;9.756;2024-01-10T01:05:13;5.60;;;5.00;;
3207;SDS011;1616;52.394;9.756;2024-01-10T01:07:39;9.23;;;6.30;;
3207;SDS011;1616;52.394;9.756;2024-01-10T01:10:05;9.70;;;6.13;;
3207;SDS011;1616;52.394;9.756;2024-01-10T01:12:31;18.10;;;6.90;;
3207;SDS011;1616;52.394;9.756;2024-01-10T01:14:57;13.90;;;6.77;;
3207;SDS011;1616;52.394;9.756;2024-01-10T01:17:23;12.00;;;5.20;;
3207;SDS011;1616;52.394;9.756;2024-01-10T01:19:48;28.33;;;5.73;;
3207;SDS011;1616;52.394;9.756;2024-01-10T01:22:14;12.80;;;5.80;;
3207;SDS011;1616;52.394;9.756;2024-01-10T01:24:39;9.07;;;5.90;;
3207;SDS011;1616;52.394;9.756;2024-01-10T01:27:05;10.53;;;6.43;;
3207;SDS011;1616;52.394;9.756;2024-01-10T01:29:30;10.57;;;5.50;;
3207;SDS011;1616;52.394;9.756;2024-01-10T01:31:56;10.70;;;5.50;;
3207;SDS011;1616;52.394;9.756;2024-01-10T01:34:22;22.33;;;6.20;;
3207;SDS011;1616;52.394;9.756;2024-01-10T01:36:47;12.83;;;5.57;;
3207;SDS011;1616;52.394;9.756;2024-01-10T01:39:14;10.00;;;5.53;;
3207;SDS011;1616;52.394;9.756;2024-01-10T01:41:39;13.30;;;6.03;;
3207;SDS011;1616;52.394;9.756;2024-01-10T01:44:05;15.20;;;5.50;;
3207;SDS011;1616;52.394;9.756;2024-01-10T01:46:31;11.77;;;6.10;;
3207;SDS011;1616;52.394;9.756;2024-01-10T01:48:58;14.83;;;7.30;;
3207;SDS011;1616;52.394;9.756;2024-01-10T01:51:24;8.20;;;5.17;;
3207;SDS011;1616;52.394;9.756;2024-01-10T01:53:52;15.70;;;6.33;;
3207;SDS011;1616;52.394;9.756;2024-01-10T01:56:18;8.90;;;5.30;;
3207;SDS011;1616;52.394;9.756;2024-01-10T01:58:44;15.07;;;7.80;;
3207;SDS011;1616;52.394;9.756;2024-01-10T02:01:11;10.17;;;5.30;;
3207;SDS011;1616;52.394;9.756;2024-01-10T02:03:37;13.27;;;6.87;;
3207;SDS011;1616;52.394;9.756;2024-01-10T02:06:03;14.10;;;6.43;;
3207;SDS011;1616;52.394;9.756;2024-01-10T02:08:32;14.30;;;7.40;;
3207;SDS011;1616;52.394;9.756;2024-01-10T02:10:59;15.83;;;7.63;;
3207;SDS011;1616;52.394;9.756;2024-01-10T02:13:26;10.43;;;6.53;;
3207;SDS011;1616;52.394;9.756;2024-01-10T02:15:53;17.33;;;6.77;;
3207;SDS011;1616;52.394;9.756;2024-01-10T02:18:20;17.00;;;6.93;;
3207;SDS011;1616;52.394;9.756;2024-01-10T02:20:46;19.63;;;6.50;;
3207;SDS011;1616;52.394;9.756;2024-01-10T02:23:12;10.93;;;6.10;;
3207;SDS011;1616;52.394;9.756;2024-01-10T02:25:38;16.97;;;6.77;;
3207;SDS011;1616;52.394;9.756;2024-01-10T02:28:05;18.83;;;7.70;;
3207;SDS011;1616;52.394;9.756;2024-01-10T02:30:31;11.77;;;7.07;;
3207;SDS011;1616;52.394;9.756;2024-01-10T02:32:58;17.10;;;6.80;;
3207;SDS011;1616;52.394;9.756;2024-01-10T02:35:24;13.27;;;7.13;;
3207;SDS011;1616;52.394;9.756;2024-01-10T02:37:49;15.07;;;6.60;;
3207;SDS011;1616;52.394;9.756;2024-01-10T02:40:16;12.50;;;6.37;;
3207;SDS011;1616;52.394;9.756;2024-01-10T02:42:42;8.80;;;5.53;;
3207;SDS011;1616;52.394;9.756;2024-01-10T02:45:08;17.47;;;7.60;;
3207;SDS011;1616;52.394;9.756;2024-01-10T02:47:34;12.20;;;6.50;;
3207;SDS011;1616;52.394;9.756;2024-01-10T02:50:00;16.33;;;6.87;;
3207;SDS011;1616;52.394;9.756;2024-01-10T02:52:25;15.47;;;6.13;;
3207;SDS011;1616;52.394;9.756;2024-01-10T02:54:51;15.83;;;7.63;;
3207;SDS011;1616;52.394;9.756;2024-01-10T02:57:16;13.57;;;7.33;;
3207;SDS011;1616;52.394;9.756;2024-01-10T02:59:42;18.50;;;7.67;;
3207;SDS011;1616;52.394;9.756;2024-01-10T03:02:07;19.33;;;7.53;;
3207;SDS011;1616;52.394;9.756;2024-01-10T03:04:34;17.37;;;8.40;;
3207;SDS011;1616;52.394;9.756;2024-01-10T03:07:00;12.80;;;7.80;;
3207;SDS011;1616;52.394;9.756;2024-01-10T03:09:25;20.13;;;7.93;;
3207;SDS011;1616;52.394;9.756;2024-01-10T03:11:51;15.00;;;5.83;;
3207;SDS011;1616;52.394;9.756;2024-01-10T03:14:16;15.63;;;6.60;;
3207;SDS011;1616;52.394;9.756;2024-01-10T03:16:42;20.27;;;8.50;;
3207;SDS011;1616;52.394;9.756;2024-01-10T03:19:07;13.33;;;7.73;;
3207;SDS011;1616;52.394;9.756;2024-01-10T03:21:33;12.53;;;6.93;;
3207;SDS011;1616;52.394;9.756;2024-01-10T03:23:59;16.50;;;7.80;;
3207;SDS011;1616;52.394;9.756;2024-01-10T03:26:26;15.17;;;7.53;;
3207;SDS011;1616;52.394;9.756;2024-01-10T03:28:52;14.60;;;7.07;;
3207;SDS011;1616;52.394;9.756;2024-01-10T03:31:19;15.60;;;7.90;;
3207;SDS011;1616;52.394;9.756;2024-01-10T03:33:45;20.90;;;7.73;;
3207;SDS011;1616;52.394;9.756;2024-01-10T03:36:15;23.40;;;8.67;;
3207;SDS011;1616;52.394;9.756;2024-01-10T03:38:42;18.47;;;8.93;;
3207;SDS011;1616;52.394;9.756;2024-01-10T03:41:15;19.93;;;8.40;;
3207;SDS011;1616;52.394;9.756;2024-01-10T03:43:42;15.93;;;8.40;;
3207;SDS011;1616;52.394;9.756;2024-01-10T03:46:08;17.53;;;8.40;;
3207;SDS011;1616;52.394;9.756;2024-01-10T03:48:35;21.80;;;9.10;;
3207;SDS011;1616;52.394;9.756;2024-01-10T03:51:03;16.80;;;8.90;;
3207;SDS011;1616;52.394;9.756;2024-01-10T03:53:29;18.77;;;8.77;;
3207;SDS011;1616;52.394;9.756;2024-01-10T03:55:55;17.87;;;8.63;;
3207;SDS011;1616;52.394;9.756;2024-01-10T03:58:20;16.80;;;8.50;;
3207;SDS011;1616;52.394;9.756;2024-01-10T04:00:46;22.33;;;9.77;;
3207;SDS011;1616;52.394;9.756;2024-01-10T04:03:16;24.93;;;9.97;;
3207;SDS011;1616;52.394;9.756;2024-01-10T04:05:42;20.43;;;10.17;;
3207;SDS011;1616;52.394;9.756;2024-01-10T04:08:08;21.23;;;10.60;;
3207;SDS011;1616;52.394;9.756;2024-01-10T04:10:33;23.83;;;10.63;;
3207;SDS011;1616;52.394;9.756;2024-01-10T04:12:59;25.37;;;9.93;;
3207;SDS011;1616;52.394;9.756;2024-01-10T04:15:24;28.30;;;11.80;;
3207;SDS011;1616;52.394;9.756;2024-01-10T04:17:51;28.83;;;11.50;;
3207;SDS011;1616;52.394;9.756;2024-01-10T04:20:17;26.77;;;12.07;;
3207;SDS011;1616;52.394;9.756;2024-01-10T04:22:42;30.33;;;11.40;;
3207;SDS011;1616;52.394;9.756;2024-01-10T04:25:08;24.83;;;11.20;;
3207;SDS011;1616;52.394;9.756;2024-01-10T04:27:35;24.87;;;12.93;;
3207;SDS011;1616;52.394;9.756;2024-01-10T04:30:00;29.30;;;11.80;;
3207;SDS011;1616;52.394;9.756;2024-01-10T04:32:26;37.00;;;13.57;;
3207;SDS011;1616;52.394;9.756;2024-01-10T04:34:51;26.20;;;13.00;;
3207;SDS011;1616;52.394;9.756;2024-01-10T04:37:17;41.17;;;13.13;;
3207;SDS011;1616;52.394;9.756;2024-01-10T04:39:43;26.67;;;12.67;;
3207;SDS011;1616;52.394;9.756;2024-01-10T04:42:12;26.27;;;11.07;;
3207;SDS011;1616;52.394;9.756;2024-01-10T04:44:38;32.00;;;13.60;;
3207;SDS011;1616;52.394;9.756;2024-01-10T04:47:04;32.20;;;13.43;;
3207;SDS011;1616;52.394;9.756;2024-01-10T04:49:29;29.13;;;13.10;;
3207;SDS011;1616;52.394;9.756;2024-01-10T04:51:55;38.80;;;14.20;;
3207;SDS011;1616;52.394;9.756;2024-01-10T04:54:21;37.63;;;14.00;;
3207;SDS011;1616;52.394;9.756;2024-01-10T04:56:46;45.17;;;15.50;;
3207;SDS011;1616;52.394;9.756;2024-01-10T04:59:12;36.20;;;12.73;;
3207;SDS011;1616;52.394;9.756;2024-01-10T05:01:37;31.67;;;14.43;;
3207;SDS011;1616;52.394;9.756;2024-01-10T05:04:03;31.90;;;13.50;;
3207;SDS011;1616;52.394;9.756;2024-01-10T05:06:29;27.40;;;13.37;;
3207;SDS011;1616;52.394;9.756;2024-01-10T05:08:55;35.57;;;14.67;;
3207;SDS011;1616;52.394;9.756;2024-01-10T05:11:23;28.30;;;12.30;;
3207;SDS011;1616;52.394;9.756;2024-01-10T05:13:50;30.47;;;12.67;;
3207;SDS011;1616;52.394;9.756;2024-01-10T05:16:16;26.77;;;13.47;;
3207;SDS011;1616;52.394;9.756;2024-01-10T05:18:42;28.07;;;11.63;;
3207;SDS011;1616;52.394;9.756;2024-01-10T05:21:08;31.87;;;14.37;;
3207;SDS011;1616;52.394;9.756;2024-01-10T05:23:33;24.80;;;11.90;;
3207;SDS011;1616;52.394;9.756;2024-01-10T05:25:59;28.60;;;14.20;;
3207;SDS011;1616;52.394;9.756;2024-01-10T05:28:25;33.43;;;13.27;;
3207;SDS011;1616;52.394;9.756;2024-01-10T05:30:50;36.47;;;12.43;;
3207;SDS011;1616;52.394;9.756;2024-01-10T05:33:16;30.87;;;14.70;;
3207;SDS011;1616;52.394;9.756;2024-01-10T05:35:42;35.70;;;13.23;;
3207;SDS011;1616;52.394;9.756;2024-01-10T05:38:07;32.77;;;13.77;;
3207;SDS011;1616;52.394;9.756;2024-01-10T05:40:33;34.93;;;13.30;;
3207;SDS011;1616;52.394;9.756;2024-01-10T05:42:58;30.27;;;12.40;;
3207;SDS011;1616;52.394;9.756;2024-01-10T05:45:25;28.23;;;12.70;;
3207;SDS011;1616;52.394;9.756;2024-01-10T05:47:51;34.13;;;14.07;;
3207;SDS011;1616;52.394;9.756;2024-01-10T05:50:17;33.30;;;13.80;;
3207;SDS011;1616;52.394;9.756;2024-01-10T05:52:43;28.13;;;10.57;;
3207;SDS011;1616;52.394;9.756;2024-01-10T05:55:09;34.23;;;14.50;;
3207;SDS011;1616;52.394;9.756;2024-01-10T05:57:35;31.07;;;13.87;;
3207;SDS011;1616;52.394;9.756;2024-01-10T06:00:01;42.63;;;13.53;;
3207;SDS011;1616;52.394;9.756;2024-01-10T06:02:28;41.63;;;14.80;;
3207;SDS011;1616;52.394;9.756;2024-01-10T06:04:54;37.57;;;13.77;;
3207;SDS011;1616;52.394;9.756;2024-01-10T06:07:19;35.47;;;13.33;;
3207;SDS011;1616;52.394;9.756;2024-01-10T06:09:46;29.70;;;12.50;;
3207;SDS011;1616;52.394;9.756;2024-01-10T06:12:11;31.73;;;12.37;;
3207;SDS011;1616;52.394;9.756;2024-01-10T06:14:37;35.33;;;14.17;;
3207;SDS011;1616;52.394;9.756;2024-01-10T06:17:03;43.17;;;14.83;;
3207;SDS011;1616;52.394;9.756;2024-01-10T06:19:29;29.63;;;13.33;;
3207;SDS011;1616;52.394;9.756;2024-01-10T06:21:56;32.97;;;11.80;;
3207;SDS011;1616;52.394;9.756;2024-01-10T06:24:22;37.87;;;13.00;;
3207;SDS011;1616;52.394;9.756;2024-01-10T06:26:48;37.80;;;13.57;;
3207;SDS011;1616;52.394;9.756;2024-01-10T06:29:15;24.17;;;11.77;;
3207;SDS011;1616;52.394;9.756;2024-01-10T06:31:41;27.20;;;11.23;;
3207;SDS011;1616;52.394;9.756;2024-01-10T06:34:07;28.60;;;9.10;;
3207;SDS011;1616;52.394;9.756;2024-01-10T06:36:33;29.40;;;12.40;;
3207;SDS011;1616;52.394;9.756;2024-01-10T06:38:59;33.27;;;13.20;;
3207;SDS011;1616;52.394;9.756;2024-01-10T06:41:25;29.20;;;12.20;;
3207;SDS011;1616;52.394;9.756;2024-01-10T06:43:51;32.53;;;12.77;;
3207;SDS011;1616;52.394;9.756;2024-01-10T06:46:18;36.17;;;16.60;;
3207;SDS011;1616;52.394;9.756;2024-01-10T06:48:44;33.07;;;12.67;;
3207;SDS011;1616;52.394;9.756;2024-01-10T06:51:13;28.47;;;10.47;;
3207;SDS011;1616;52.394;9.756;2024-01-10T06:53:39;42.90;;;14.23;;
3207;SDS011;1616;52.394;9.756;2024-01-10T06:56:06;28.07;;;11.63;;
3207;SDS011;1616;52.394;9.756;2024-01-10T06:58:32;26.00;;;11.87;;
3207;SDS011;1616;52.394;9.756;2024-01-10T07:00:58;39.07;;;14.50;;
3207;SDS011;1616;52.394;9.756;2024-01-10T07:03:29;28.20;;;12.03;;
3207;SDS011;1616;52.394;9.756;2024-01-10T07:05:56;35.17;;;13.97;;
3207;SDS011;1616;52.394;9.756;2024-01-10T07:08:22;39.07;;;14.60;;
3207;SDS011;1616;52.394;9.756;2024-01-10T07:10:48;32.53;;;13.90;;
3207;SDS011;1616;52.394;9.756;2024-01-10T07:13:15;40.63;;;15.07;;
3207;SDS011;1616;52.394;9.756;2024-01-10T07:15:40;27.80;;;13.97;;
3207;SDS011;1616;52.394;9.756;2024-01-10T07:18:07;34.03;;;13.97;;
3207;SDS011;1616;52.394;9.756;2024-01-10T07:20:32;34.53;;;12.80;;
3207;SDS011;1616;52.394;9.756;2024-01-10T07:22:58;47.17;;;16.20;;
3207;SDS011;1616;52.394;9.756;2024-01-10T07:25:24;28.63;;;13.37;;
3207;SDS011;1616;52.394;9.756;2024-01-10T07:27:53;34.43;;;14.37;;
3207;SDS011;1616;52.394;9.756;2024-01-10T07:30:18;33.10;;;15.03;;
3207;SDS011;1616;52.394;9.756;2024-01-10T07:32:45;35.07;;;14.23;;
3207;SDS011;1616;52.394;9.756;2024-01-10T07:35:12;29.70;;;13.27;;
3207;SDS011;1616;52.394;9.756;2024-01-10T07:37:39;30.50;;;12.70;;
3207;SDS011;1616;52.394;9.756;2024-01-10T07:40:08;28.80;;;13.27;;
3207;SDS011;1616;52.394;9.756;2024-01-10T07:42:35;34.07;;;14.93;;
3207;SDS011;1616;52.394;9.756;2024-01-10T07:45:02;33.37;;;14.00;;
3207;SDS011;1616;52.394;9.756;2024-01-10T07:47:31;30.77;;;13.67;;
3207;SDS011;1616;52.394;9.756;2024-01-10T07:49:57;37.60;;;15.33;;
3207;SDS011;1616;52.394;9.756;2024-01-10T07:52:23;32.60;;;13.23;;
3207;SDS011;1616;52.394;9.756;2024-01-10T07:54:49;40.20;;;14.50;;
3207;SDS011;1616;52.394;9.756;2024-01-10T07:57:14;37.20;;;13.57;;
3207;SDS011;1616;52.394;9.756;2024-01-10T07:59:43;36.13;;;14.83;;
3207;SDS011;1616;52.394;9.756;2024-01-10T08:02:09;41.27;;;16.20;;
3207;SDS011;1616;52.394;9.756;2024-01-10T08:04:35;34.80;;;15.53;;
3207;SDS011;1616;52.394;9.756;2024-01-10T08:07:01;45.87;;;18.37;;
3207;SDS011;1616;52.394;9.756;2024-01-10T08:09:27;39.67;;;16.80;;
3207;SDS011;1616;52.394;9.756;2024-01-10T08:11:52;41.50;;;15.97;;
3207;SDS011;1616;52.394;9.756;2024-01-10T08:14:18;30.57;;;16.50;;
3207;SDS011;1616;52.394;9.756;2024-01-10T08:16:44;34.07;;;15.73;;
3207;SDS011;1616;52.394;9.756;2024-01-10T08:19:09;35.17;;;17.73;;
3207;SDS011;1616;52.394;9.756;2024-01-10T08:21:36;47.93;;;20.80;;
3207;SDS011;1616;52.394;9.756;2024-01-10T08:24:02;42.03;;;18.27;;
3207;SDS011;1616;52.394;9.756;2024-01-10T08:26:28;41.47;;;15.77;;
3207;SDS011;1616;52.394;9.756;2024-01-10T08:28:54;33.33;;;16.67;;
3207;SDS011;1616;52.394;9.756;2024-01-10T08:31:20;37.30;;;18.10;;
3207;SDS011;1616;52.394;9.756;2024-01-10T08:33:46;31.93;;;19.00;;
3207;SDS011;1616;52.394;9.756;2024-01-10T08:36:12;37.90;;;18.00;;
3207;SDS011;1616;52.394;9.756;2024-01-10T08:38:39;33.27;;;17.73;;
3207;SDS011;1616;52.394;9.756;2024-01-10T08:41:07;38.67;;;19.60;;
3207;SDS011;1616;52.394;9.756;2024-01-10T08:43:33;41.37;;;19.27;;
3207;SDS011;1616;52.394;9.756;2024-01-10T08:45:59;35.30;;;18.23;;
3207;SDS011;1616;52.394;9.756;2024-01-10T08:48:25;35.67;;;21.23;;
3207;SDS011;1616;52.394;9.756;2024-01-10T08:50:51;39.30;;;21.57;;
3207;SDS011;1616;52.394;9.756;2024-01-10T08:53:19;33.30;;;19.63;;
3207;SDS011;1616;52.394;9.756;2024-01-10T08:55:45;30.67;;;19.53;;
3207;SDS011;1616;52.394;9.756;2024-01-10T08:58:12;37.53;;;20.57;;
3207;SDS011;1616;52.394;9.756;2024-01-10T09:00:38;32.07;;;19.10;;
3207;SDS011;1616;52.394;9.756;2024-01-10T09:03:03;33.10;;;20.00;;
3207;SDS011;1616;52.394;9.756;2024-01-10T09:05:30;39.07;;;21.00;;
3207;SDS011;1616;52.394;9.756;2024-01-10T09:07:55;37.67;;;21.90;;
3207;SDS011;1616;52.394;9.756;2024-01-10T09:10:21;43.33;;;22.43;;
3207;SDS011;1616;52.394;9.756;2024-01-10T09:12:47;35.77;;;23.73;;
3207;SDS011;1616;52.394;9.756;2024-01-10T09:15:13;38.33;;;21.43;;
3207;SDS011;1616;52.394;9.756;2024-01-10T09:17:43;34.57;;;21.43;;
3207;SDS011;1616;52.394;9.756;2024-01-10T09:20:09;40.00;;;22.33;;
3207;SDS011;1616;52.394;9.756;2024-01-10T09:22:36;38.13;;;20.70;;
3207;SDS011;1616;52.394;9.756;2024-01-10T09:25:03;36.10;;;21.47;;
3207;SDS011;1616;52.394;9.756;2024-01-10T09:27:32;37.33;;;22.63;;
3207;SDS011;1616;52.394;9.756;2024-01-10T09:30:04;36.13;;;22.70;;
3207;SDS011;1616;52.394;9.756;2024-01-10T09:32:33;38.97;;;21.97;;
3207;SDS011;1616;52.394;9.756;2024-01-10T09:35:01;36.00;;;21.77;;
3207;SDS011;1616;52.394;9.756;2024-01-10T09:37:27;32.30;;;21.27;;
3207;SDS011;1616;52.394;9.756;2024-01-10T09:39:52;33.03;;;21.23;;
3207;SDS011;1616;52.394;9.756;2024-01-10T09:42:18;34.80;;;21.87;;
3207;SDS011;1616;52.394;9.756;2024-01-10T09:44:46;34.63;;;21.33;;
3207;SDS011;1616;52.394;9.756;2024-01-10T09:47:13;38.47;;;22.20;;
3207;SDS011;1616;52.394;9.756;2024-01-10T09:49:40;33.97;;;22.67;;
3207;SDS011;1616;52.394;9.756;2024-01-10T09:52:08;36.30;;;23.20;;
3207;SDS011;1616;52.394;9.756;2024-01-10T09:54:36;34.70;;;23.20;;
3207;SDS011;1616;52.394;9.756;2024-01-10T09:57:05;37.40;;;23.63;;
3207;SDS011;1616;52.394;9.756;2024-01-10T09:59:31;35.30;;;23.73;;
3207;SDS011;1616;52.394;9.756;2024-01-10T10:01:57;34.93;;;22.13;;
3207;SDS011;1616;52.394;9.756;2024-01-10T10:04:27;27.40;;;21.13;;
3207;SDS011;1616;52.394;9.756;2024-01-10T10:07:00;38.70;;;24.13;;
3207;SDS011;1616;52.394;9.756;2024-01-10T10:09:26;35.03;;;23.10;;
3207;SDS011;1616;52.394;9.756;2024-01-10T10:11:54;40.10;;;24.40;;
3207;SDS011;1616;52.394;9.756;2024-01-10T10:14:20;37.97;;;24.30;;
3207;SDS011;1616;52.394;9.756;2024-01-10T10:16:45;39.17;;;23.20;;
3207;SDS011;1616;52.394;9.756;2024-01-10T10:19:11;34.53;;;22.03;;
3207;SDS011;1616;52.394;9.756;2024-01-10T10:21:38;38.97;;;23.90;;
3207;SDS011;1616;52.394;9.756;2024-01-10T10:24:04;35.57;;;22.53;;
3207;SDS011;1616;52.394;9.756;2024-01-10T10:26:33;39.43;;;22.50;;
3207;SDS011;1616;52.394;9.756;2024-01-10T10:28:59;34.97;;;23.07;;
3207;SDS011;1616;52.394;9.756;2024-01-10T10:31:26;42.17;;;24.07;;
3207;SDS011;1616;52.394;9.756;2024-01-10T10:33:52;36.97;;;23.93;;
3207;SDS011;1616;52.394;9.756;2024-01-10T10:36:19;35.20;;;21.27;;
3207;SDS011;1616;52.394;9.756;2024-01-10T10:38:48;39.60;;;23.73;;
3207;SDS011;1616;52.394;9.756;2024-01-10T10:41:14;41.07;;;22.67;;
3207;SDS011;1616;52.394;9.756;2024-01-10T10:43:41;37.97;;;24.33;;
3207;SDS011;1616;52.394;9.756;2024-01-10T10:46:08;35.87;;;23.33;;
3207;SDS011;1616;52.394;9.756;2024-01-10T10:48:42;39.13;;;24.77;;
3207;SDS011;1616;52.394;9.756;2024-01-10T10:51:13;36.53;;;25.00;;
3207;SDS011;1616;52.394;9.756;2024-01-10T10:53:45;47.13;;;25.37;;
3207;SDS011;1616;52.394;9.756;2024-01-10T10:56:11;41.13;;;23.03;;
3207;SDS011;1616;52.394;9.756;2024-01-10T10:58:43;41.57;;;24.37;;
3207;SDS011;1616;52.394;9.756;2024-01-10T11:01:10;36.77;;;24.20;;
3207;SDS011;1616;52.394;9.756;2024-01-10T11:03:38;35.80;;;21.73;;
3207;SDS011;1616;52.394;9.756;2024-01-10T11:06:06;42.57;;;25.00;;
3207;SDS011;1616;52.394;9.756;2024-01-10T11:08:53;39.50;;;25.17;;
3207;SDS011;1616;52.394;9.756;2024-01-10T11:23:27;41.03;;;23.37;;
3207;SDS011;1616;52.394;9.756;2024-01-10T11:25:30;36.70;;;23.87;;
3207;SDS011;1616;52.394;9.756;2024-01-10T11:27:57;38.00;;;24.27;;
3207;SDS011;1616;52.394;9.756;2024-01-10T11:30:34;36.93;;;24.00;;
3207;SDS011;1616;52.394;9.756;2024-01-10T11:38:40;40.97;;;24.43;;
3207;SDS011;1616;52.394;9.756;2024-01-10T11:41:07;32.03;;;21.90;;
3207;SDS011;1616;52.394;9.756;2024-01-10T11:43:36;37.63;;;23.70;;
3207;SDS011;1616;52.394;9.756;2024-01-10T11:46:02;36.07;;;22.30;;
3207;SDS011;1616;52.394;9.756;2024-01-10T11:48:31;47.77;;;28.40;;
3207;SDS011;1616;52.394;9.756;2024-01-10T11:50:58;34.67;;;23.20;;
3207;SDS011;1616;52.394;9.756;2024-01-10T11:53:44;38.90;;;23.80;;
3207;SDS011;1616;52.394;9.756;2024-01-10T11:56:15;37.03;;;24.20;;
3207;SDS011;1616;52.394;9.756;2024-01-10T11:58:54;37.23;;;22.97;;
3207;SDS011;1616;52.394;9.756;2024-01-10T12:01:21;34.37;;;23.33;;
3207;SDS011;1616;52.394;9.756;2024-01-10T12:03:51;39.43;;;24.37;;
3207;SDS011;1616;52.394;9.756;2024-01-10T12:06:18;35.77;;;22.80;;
3207;SDS011;1616;52.394;9.756;2024-01-10T12:08:46;37.47;;;22.67;;
3207;SDS011;1616;52.394;9.756;2024-01-10T12:11:11;30.50;;;22.27;;
3207;SDS011;1616;52.394;9.756;2024-01-10T12:13:37;42.63;;;23.60;;
3207;SDS011;1616;52.394;9.756;2024-01-10T12:16:03;34.60;;;21.97;;
3207;SDS011;1616;52.394;9.756;2024-01-10T12:18:29;36.23;;;22.60;;
3207;SDS011;1616;52.394;9.756;2024-01-10T12:20:55;38.40;;;23.30;;
3207;SDS011;1616;52.394;9.756;2024-01-10T12:23:20;41.30;;;22.70;;
3207;SDS011;1616;52.394;9.756;2024-01-10T12:25:48;38.63;;;22.20;;
3207;SDS011;1616;52.394;9.756;2024-01-10T12:28:17;35.03;;;22.27;;
3207;SDS011;1616;52.394;9.756;2024-01-10T12:30:42;45.03;;;23.37;;
3207;SDS011;1616;52.394;9.756;2024-01-10T12:33:09;36.83;;;22.70;;
3207;SDS011;1616;52.394;9.756;2024-01-10T12:35:34;34.67;;;21.10;;
3207;SDS011;1616;52.394;9.756;2024-01-10T12:38:00;38.20;;;22.60;;
3207;SDS011;1616;52.394;9.756;2024-01-10T12:40:25;40.83;;;21.80;;
3207;SDS011;1616;52.394;9.756;2024-01-10T12:43:02;45.50;;;24.17;;
3207;SDS011;1616;52.394;9.756;2024-01-10T12:45:29;39.60;;;22.33;;
3207;SDS011;1616;52.394;9.756;2024-01-10T12:47:55;37.33;;;21.60;;
3207;SDS011;1616;52.394;9.756;2024-01-10T12:50:22;41.90;;;22.23;;
3207;SDS011;1616;52.394;9.756;2024-01-10T12:52:50;35.23;;;21.30;;
3207;SDS011;1616;52.394;9.756;2024-01-10T12:55:16;41.80;;;21.23;;
3207;SDS011;1616;52.394;9.756;2024-01-10T12:57:44;33.67;;;19.47;;
3207;SDS011;1616;52.394;9.756;2024-01-10T13:00:10;37.73;;;20.20;;
3207;SDS011;1616;52.394;9.756;2024-01-10T13:02:36;38.70;;;21.80;;
3207;SDS011;1616;52.394;9.756;2024-01-10T13:05:06;45.30;;;20.70;;
3207;SDS011;1616;52.394;9.756;2024-01-10T13:07:37;40.17;;;19.30;;
3207;SDS011;1616;52.394;9.756;2024-01-10T13:10:03;44.53;;;21.00;;
3207;SDS011;1616;52.394;9.756;2024-01-10T13:12:30;40.63;;;17.70;;
3207;SDS011;1616;52.394;9.756;2024-01-10T13:14:56;42.13;;;20.40;;
3207;SDS011;1616;52.394;9.756;2024-01-10T13:17:22;48.50;;;20.43;;
3207;SDS011;1616;52.394;9.756;2024-01-10T13:19:47;42.23;;;18.80;;
3207;SDS011;1616;52.394;9.756;2024-01-10T13:22:16;40.67;;;19.23;;
3207;SDS011;1616;52.394;9.756;2024-01-10T13:24:45;40.30;;;20.00;;
3207;SDS011;1616;52.394;9.756;2024-01-10T13:27:11;42.33;;;17.20;;
3207;SDS011;1616;52.394;9.756;2024-01-10T13:29:37;37.37;;;17.87;;
3207;SDS011;1616;52.394;9.756;2024-01-10T13:32:06;43.73;;;18.23;;
3207;SDS011;1616;52.394;9.756;2024-01-10T13:34:36;45.70;;;18.07;;
3207;SDS011;1616;52.394;9.756;2024-01-10T13:37:02;47.27;;;19.87;;
3207;SDS011;1616;52.394;9.756;2024-01-10T13:39:29;37.53;;;17.37;;
3207;SDS011;1616;52.394;9.756;2024-01-10T13:41:54;42.93;;;16.70;;
3207;SDS011;1616;52.394;9.756;2024-01-10T13:44:22;38.30;;;17.43;;
3207;SDS011;1616;52.394;9.756;2024-01-10T13:46:47;43.83;;;18.43;;
3207;SDS011;1616;52.394;9.756;2024-01-10T13:49:15;47.57;;;19.03;;
3207;SDS011;1616;52.394;9.756;2024-01-10T13:51:41;40.57;;;17.70;;
3207;SDS011;1616;52.394;9.756;2024-01-10T13:54:06;34.53;;;16.90;;
3207;SDS011;1616;52.394;9.756;2024-01-10T13:56:32;39.67;;;17.60;;
3207;SDS011;1616;52.394;9.756;2024-01-10T13:58:59;38.10;;;16.87;;
3207;SDS011;1616;52.394;9.756;2024-01-10T14:01:24;42.23;;;17.03;;
3207;SDS011;1616;52.394;9.756;2024-01-10T14:03:51;42.67;;;19.13;;
3207;SDS011;1616;52.394;9.756;2024-01-10T14:06:16;43.63;;;18.30;;
3207;SDS011;1616;52.394;9.756;2024-01-10T14:08:42;37.10;;;16.80;;
3207;SDS011;1616;52.394;9.756;2024-01-10T14:11:10;33.70;;;16.47;;
3207;SDS011;1616;52.394;9.756;2024-01-10T14:13:36;38.90;;;16.43;;
3207;SDS011;1616;52.394;9.756;2024-01-10T14:16:02;40.90;;;18.77;;
3207;SDS011;1616;52.394;9.756;2024-01-10T14:18:27;37.20;;;17.77;;
3207;SDS011;1616;52.394;9.756;2024-01-10T14:20:53;37.10;;;16.30;;
3207;SDS011;1616;52.394;9.756;2024-01-10T14:23:18;36.50;;;16.67;;
3207;SDS011;1616;52.394;9.756;2024-01-10T14:25:45;53.10;;;17.37;;
3207;SDS011;1616;52.394;9.756;2024-01-10T14:28:11;43.23;;;17.80;;
3207;SDS011;1616;52.394;9.756;2024-01-10T14:30:37;43.37;;;19.17;;
3207;SDS011;1616;52.394;9.756;2024-01-10T14:33:03;42.97;;;17.73;;
3207;SDS011;1616;52.394;9.756;2024-01-10T14:35:29;36.90;;;16.40;;
3207;SDS011;1616;52.394;9.756;2024-01-10T14:37:55;39.93;;;16.10;;
3207;SDS011;1616;52.394;9.756;2024-01-10T14:40:20;38.23;;;16.30;;
3207;SDS011;1616;52.394;9.756;2024-01-10T14:42:49;38.57;;;16.60;;
3207;SDS011;1616;52.394;9.756;2024-01-10T14:45:15;39.03;;;15.80;;
3207;SDS011;1616;52.394;9.756;2024-01-10T14:47:44;41.80;;;17.40;;
3207;SDS011;1616;52.394;9.756;2024-01-10T14:50:09;34.97;;;14.20;;
3207;SDS011;1616;52.394;9.756;2024-01-10T14:52:36;36.33;;;16.23;;
3207;SDS011;1616;52.394;9.756;2024-01-10T14:55:02;33.00;;;14.97;;
3207;SDS011;1616;52.394;9.756;2024-01-10T14:57:30;30.60;;;15.07;;
3207;SDS011;1616;52.394;9.756;2024-01-10T14:59:55;35.67;;;15.37;;
3207;SDS011;1616;52.394;9.756;2024-01-10T15:02:21;33.63;;;15.57;;
3207;SDS011;1616;52.394;9.756;2024-01-10T15:04:47;33.10;;;14.30;;
3207;SDS011;1616;52.394;9.756;2024-01-10T15:07:13;41.20;;;15.83;;